createdAt,value
2022-12-06T00:01:32.473Z,3.60
2022-12-06T00:04:03.119Z,4.00
2022-12-06T00:06:33.350Z,4.77
2022-12-06T00:09:02.532Z,4.20
2022-12-06T00:11:34.550Z,4.07
2022-12-06T00:14:04.333Z,4.83
2022-12-06T00:16:33.478Z,4.37
2022-12-06T00:19:02.915Z,4.40
2022-12-06T00:21:33.066Z,4.30
2022-12-06T00:24:03.643Z,4.20
2022-12-06T00:26:33.496Z,4.30
2022-12-06T00:29:02.404Z,4.10
2022-12-06T00:31:32.474Z,4.30
2022-12-06T00:34:00.879Z,4.13
2022-12-06T00:36:30.792Z,4.53
2022-12-06T00:39:01.170Z,4.17
2022-12-06T00:41:30.035Z,4.33
2022-12-06T00:43:59.988Z,4.73
2022-12-06T00:46:30.420Z,5.70
2022-12-06T00:49:01.409Z,4.03
2022-12-06T00:51:32.136Z,4.40
2022-12-06T00:54:00.790Z,3.90
2022-12-06T00:56:29.813Z,5.63
2022-12-06T00:59:00.077Z,4.10
2022-12-06T01:01:30.352Z,4.97
2022-12-06T01:04:02.059Z,5.43
2022-12-06T01:06:32.438Z,4.80
2022-12-06T01:09:02.834Z,4.10
2022-12-06T01:11:31.221Z,4.20
2022-12-06T01:14:00.853Z,5.40
2022-12-06T01:16:31.471Z,4.93
2022-12-06T01:19:01.449Z,4.77
2022-12-06T01:21:30.789Z,4.00
2022-12-06T01:23:59.524Z,3.80
2022-12-06T01:26:30.452Z,3.93
2022-12-06T01:29:01.484Z,4.07
2022-12-06T01:31:37.208Z,4.30
2022-12-06T01:34:06.903Z,4.27
2022-12-06T01:36:34.954Z,3.80
2022-12-06T01:39:06.997Z,3.40
2022-12-06T01:41:35.761Z,3.30
2022-12-06T01:44:06.937Z,3.67
2022-12-06T01:46:38.819Z,3.57
2022-12-06T01:49:18.499Z,4.13
2022-12-06T01:51:50.955Z,3.83
2022-12-06T01:54:21.920Z,4.27
2022-12-06T01:56:52.090Z,3.90
2022-12-06T01:59:22.621Z,3.80
2022-12-06T02:01:51.483Z,3.80
2022-12-06T02:04:20.756Z,4.40
2022-12-06T02:06:49.235Z,6.20
2022-12-06T02:09:18.773Z,4.60
2022-12-06T02:11:47.575Z,4.10
2022-12-06T02:14:19.110Z,4.40
2022-12-06T02:17:02.630Z,4.30
2022-12-06T02:19:56.278Z,4.23
2022-12-06T02:22:33.210Z,4.20
2022-12-06T02:25:25.343Z,5.53
2022-12-06T02:28:15.729Z,4.57
2022-12-06T02:30:48.531Z,4.00
2022-12-06T02:33:22.911Z,3.50
2022-12-06T02:35:59.469Z,3.97
2022-12-06T02:38:34.798Z,4.00
2022-12-06T02:41:08.943Z,5.10
2022-12-06T02:43:42.660Z,4.07
2022-12-06T02:46:15.020Z,4.27
2022-12-06T02:48:46.117Z,4.53
2022-12-06T02:51:18.242Z,3.80
2022-12-06T02:53:54.291Z,4.07
2022-12-06T02:56:23.863Z,4.27
2022-12-06T02:58:52.211Z,4.37
2022-12-06T03:01:26.189Z,4.00
2022-12-06T03:04:16.312Z,4.00
2022-12-06T03:07:11.177Z,4.40
2022-12-06T03:09:53.725Z,5.17
2022-12-06T03:12:31.471Z,4.87
2022-12-06T03:15:10.286Z,4.80
2022-12-06T03:17:44.360Z,4.90
2022-12-06T03:20:17.119Z,4.50
2022-12-06T03:22:50.356Z,4.90
2022-12-06T03:25:19.187Z,5.80
2022-12-06T03:27:49.508Z,6.33
2022-12-06T03:30:18.222Z,6.03
2022-12-06T03:32:51.016Z,5.87
2022-12-06T03:35:23.252Z,6.20
2022-12-06T03:37:56.703Z,7.13
2022-12-06T03:40:30.036Z,7.27
2022-12-06T03:42:59.154Z,6.70
2022-12-06T03:45:34.425Z,5.83
2022-12-06T03:48:09.259Z,6.23
2022-12-06T03:50:41.250Z,6.10
2022-12-06T03:53:09.706Z,6.77
2022-12-06T03:55:38.273Z,6.10
2022-12-06T03:58:06.734Z,5.60
2022-12-06T04:00:35.088Z,6.30
2022-12-06T04:03:04.490Z,6.07
2022-12-06T04:05:32.715Z,7.13
2022-12-06T04:08:01.002Z,5.87
2022-12-06T04:10:29.203Z,8.10
2022-12-06T04:13:02.360Z,5.90
2022-12-06T04:15:32.448Z,6.43
2022-12-06T04:18:14.176Z,6.33
2022-12-06T04:21:03.417Z,5.93
2022-12-06T04:23:32.894Z,5.27
2022-12-06T04:26:01.102Z,5.93
2022-12-06T04:28:47.217Z,5.30
2022-12-06T04:31:32.627Z,6.80
2022-12-06T04:34:18.221Z,6.37
2022-12-06T04:37:05.621Z,6.20
2022-12-06T04:39:34.158Z,7.20
2022-12-06T04:42:20.315Z,5.37
2022-12-06T04:44:48.931Z,5.83
2022-12-06T04:47:17.319Z,5.73
2022-12-06T04:49:45.466Z,7.63
2022-12-06T04:52:15.200Z,6.40
2022-12-06T04:54:43.871Z,6.07
2022-12-06T04:57:13.955Z,5.87
2022-12-06T04:59:43.978Z,5.73
2022-12-06T05:02:14.347Z,6.03
2022-12-06T05:04:42.658Z,8.37
2022-12-06T05:07:11.883Z,8.33
2022-12-06T05:09:41.537Z,9.80
2022-12-06T05:12:09.685Z,9.23
2022-12-06T05:14:38.170Z,10.03
2022-12-06T05:17:06.616Z,12.77
2022-12-06T05:19:34.812Z,13.80
2022-12-06T05:22:03.191Z,12.83
2022-12-06T05:24:31.455Z,11.13
2022-12-06T05:27:00.967Z,12.03
2022-12-06T05:29:29.387Z,13.77
2022-12-06T05:31:57.749Z,11.07
2022-12-06T05:34:26.112Z,10.33
2022-12-06T05:36:54.261Z,11.60
2022-12-06T05:39:22.500Z,9.93
2022-12-06T05:41:50.451Z,11.33
2022-12-06T05:44:20.103Z,14.27
2022-12-06T05:46:48.267Z,10.77
2022-12-06T05:49:16.367Z,10.67
2022-12-06T05:51:44.732Z,9.67
2022-12-06T05:54:13.062Z,14.47
2022-12-06T05:56:41.278Z,10.30
2022-12-06T05:59:09.569Z,10.37
2022-12-06T06:01:39.478Z,11.13
2022-12-06T06:04:07.800Z,11.37
2022-12-06T06:06:36.216Z,9.20
2022-12-06T06:09:04.708Z,10.87
2022-12-06T06:11:32.868Z,9.17
2022-12-06T06:14:01.001Z,9.07
2022-12-06T06:16:29.604Z,9.53
2022-12-06T06:19:02.079Z,10.53
2022-12-06T06:21:30.219Z,10.93
2022-12-06T06:23:58.856Z,11.83
2022-12-06T06:26:27.307Z,11.93
2022-12-06T06:28:55.587Z,10.63
2022-12-06T06:31:23.895Z,11.73
2022-12-06T06:33:52.198Z,10.60
2022-12-06T06:36:21.976Z,10.57
2022-12-06T06:38:50.342Z,10.57
2022-12-06T06:41:18.585Z,9.90
2022-12-06T06:46:31.636Z,12.40
2022-12-06T06:49:00.117Z,11.67
2022-12-06T06:51:32.105Z,18.47
2022-12-06T06:54:00.889Z,18.40
2022-12-06T06:56:31.690Z,13.40
2022-12-06T06:58:59.948Z,12.23
2022-12-06T07:01:28.887Z,13.30
2022-12-06T07:03:57.575Z,14.10
2022-12-06T07:06:25.836Z,12.90
2022-12-06T07:08:55.790Z,12.87
2022-12-06T07:11:25.136Z,14.67
2022-12-06T07:13:54.719Z,13.67
2022-12-06T07:16:23.182Z,17.33
2022-12-06T07:18:51.750Z,14.63
2022-12-06T07:21:19.906Z,14.57
2022-12-06T07:23:48.477Z,16.97
2022-12-06T07:26:20.610Z,14.47
2022-12-06T07:28:52.652Z,15.40
2022-12-06T07:31:23.749Z,14.07
2022-12-06T07:33:57.585Z,16.30
2022-12-06T07:36:28.395Z,16.57
2022-12-06T07:39:01.518Z,15.13
2022-12-06T07:41:49.362Z,16.00
2022-12-06T07:44:35.814Z,15.97
2022-12-06T07:47:04.855Z,14.67
2022-12-06T07:49:33.287Z,14.33
2022-12-06T07:52:01.705Z,16.27
2022-12-06T07:54:29.799Z,15.27
2022-12-06T07:56:59.879Z,20.20
2022-12-06T07:59:28.197Z,18.00
2022-12-06T08:01:57.205Z,20.53
2022-12-06T08:04:26.314Z,21.83
2022-12-06T08:06:55.549Z,24.47
2022-12-06T08:09:24.557Z,21.60
2022-12-06T08:11:53.361Z,20.97
2022-12-06T08:14:24.025Z,22.53
2022-12-06T08:16:52.259Z,24.83
2022-12-06T08:19:33.365Z,29.90
2022-12-06T08:22:07.553Z,19.90
2022-12-06T08:24:45.659Z,26.07
2022-12-06T08:27:14.202Z,24.00
2022-12-06T08:29:45.440Z,20.03
2022-12-06T08:32:14.774Z,23.83
2022-12-06T08:34:43.096Z,27.27
2022-12-06T08:37:11.650Z,21.10
2022-12-06T08:39:40.678Z,20.00
2022-12-06T08:42:10.541Z,18.97
2022-12-06T08:44:39.740Z,17.23
2022-12-06T08:47:13.044Z,17.93
2022-12-06T08:49:41.363Z,15.03
2022-12-06T08:52:09.729Z,16.47
2022-12-06T08:54:38.383Z,17.30
2022-12-06T08:57:07.030Z,18.03
2022-12-06T08:59:35.979Z,17.33
2022-12-06T09:02:04.843Z,16.80
2022-12-06T09:04:35.126Z,15.80
2022-12-06T09:07:11.433Z,16.53
2022-12-06T09:09:40.317Z,19.43
2022-12-06T09:12:09.041Z,18.80
2022-12-06T09:14:40.175Z,16.13
2022-12-06T09:17:08.934Z,14.83
2022-12-06T09:19:40.145Z,15.23
2022-12-06T09:22:08.991Z,14.20
2022-12-06T09:24:37.467Z,15.73
2022-12-06T09:27:06.036Z,14.43
2022-12-06T09:29:40.874Z,16.27
2022-12-06T09:32:09.904Z,22.13
2022-12-06T09:34:39.759Z,17.63
2022-12-06T09:37:14.636Z,15.23
2022-12-06T09:39:46.634Z,15.93
2022-12-06T09:42:41.512Z,16.20
2022-12-06T09:45:33.139Z,17.93
2022-12-06T09:48:34.781Z,17.87
2022-12-06T09:51:19.120Z,15.90
2022-12-06T09:54:01.815Z,26.77
2022-12-06T09:56:38.897Z,14.83
2022-12-06T09:59:17.627Z,15.33
2022-12-06T10:01:58.115Z,14.87
2022-12-06T10:04:54.733Z,18.07
2022-12-06T10:07:32.319Z,18.67
2022-12-06T10:10:12.291Z,15.83
2022-12-06T10:12:59.502Z,14.13
2022-12-06T10:15:39.524Z,24.83
2022-12-06T10:18:28.493Z,14.90
2022-12-06T10:21:06.820Z,28.03
2022-12-06T10:23:51.186Z,12.83
2022-12-06T10:26:27.673Z,12.17
2022-12-06T10:29:09.440Z,19.83
2022-12-06T10:31:59.244Z,16.77
2022-12-06T10:34:52.984Z,14.80
2022-12-06T10:40:30.521Z,10.57
2022-12-06T10:43:07.023Z,8.23
2022-12-06T10:46:12.934Z,9.23
2022-12-06T10:48:54.163Z,12.60
2022-12-06T10:51:31.913Z,12.77
2022-12-06T10:54:11.526Z,40.93
2022-12-06T10:56:49.349Z,11.70
2022-12-06T10:59:32.819Z,12.07
2022-12-06T11:02:06.712Z,12.03
2022-12-06T11:04:40.189Z,15.30
2022-12-06T11:07:30.502Z,20.57
2022-12-06T11:10:01.645Z,12.30
2022-12-06T11:12:36.882Z,15.77
2022-12-06T11:15:18.491Z,12.37
2022-12-06T11:20:52.904Z,11.57
2022-12-06T11:23:28.097Z,10.20
2022-12-06T11:26:12.130Z,12.30
2022-12-06T11:32:09.485Z,12.50
2022-12-06T11:34:43.961Z,12.03
2022-12-06T11:37:18.685Z,10.70
2022-12-06T11:39:48.307Z,14.20
2022-12-06T11:42:19.159Z,11.43
2022-12-06T11:44:54.564Z,23.77
2022-12-06T11:47:25.454Z,12.67
2022-12-06T11:49:56.663Z,12.63
2022-12-06T11:52:31.172Z,12.93
2022-12-06T11:55:04.021Z,21.47
2022-12-06T11:57:37.013Z,19.70
2022-12-06T12:00:14.583Z,16.27
2022-12-06T12:02:48.601Z,22.67
2022-12-06T12:05:23.673Z,15.80
2022-12-06T12:07:57.507Z,14.43
2022-12-06T12:10:38.612Z,15.30
2022-12-06T12:13:40.085Z,30.53
2022-12-06T12:16:16.828Z,19.47
2022-12-06T12:18:56.714Z,20.03
2022-12-06T12:21:48.481Z,14.83
2022-12-06T12:25:17.448Z,27.27
2022-12-06T12:27:35.752Z,15.93
2022-12-06T12:33:31.556Z,14.77
2022-12-06T12:36:18.411Z,44.50
2022-12-06T12:38:55.501Z,12.80
2022-12-06T12:41:29.670Z,19.17
2022-12-06T12:44:35.294Z,13.20
2022-12-06T12:46:53.777Z,16.00
2022-12-06T12:49:29.736Z,14.03
2022-12-06T12:52:01.054Z,13.40
2022-12-06T12:54:33.527Z,15.13
2022-12-06T12:57:03.711Z,14.20
2022-12-06T12:59:40.548Z,14.07
2022-12-06T13:02:18.953Z,58.27
2022-12-06T13:04:59.815Z,10.07
2022-12-06T13:07:43.533Z,12.30
2022-12-06T13:10:22.505Z,12.90
2022-12-06T13:12:54.665Z,14.40
2022-12-06T13:15:30.635Z,20.40
2022-12-06T13:18:02.095Z,19.63
2022-12-06T13:20:33.388Z,14.13
2022-12-06T13:23:08.530Z,17.30
2022-12-06T13:25:42.947Z,19.30
2022-12-06T13:28:20.473Z,16.50
2022-12-06T13:30:58.455Z,26.63
2022-12-06T13:33:29.091Z,20.23
2022-12-06T13:36:01.781Z,20.67
2022-12-06T13:38:34.620Z,21.77
2022-12-06T13:41:03.705Z,21.80
2022-12-06T13:43:50.284Z,37.03
2022-12-06T13:46:31.475Z,20.93
2022-12-06T13:49:04.741Z,26.70
2022-12-06T13:51:50.097Z,17.67
2022-12-06T13:54:41.326Z,12.60
2022-12-06T13:57:28.369Z,15.93
2022-12-06T13:59:59.223Z,17.97
2022-12-06T14:02:52.064Z,19.63
2022-12-06T14:06:12.191Z,11.20
2022-12-06T14:08:49.590Z,11.60
2022-12-06T14:11:26.688Z,12.07
2022-12-06T14:14:03.867Z,9.67
2022-12-06T14:16:37.185Z,8.60
2022-12-06T14:19:15.857Z,8.53
2022-12-06T14:21:46.259Z,9.60
2022-12-06T14:24:30.298Z,9.53
2022-12-06T14:27:08.202Z,7.83
2022-12-06T14:29:39.146Z,9.63
2022-12-06T14:32:08.853Z,14.70
2022-12-06T14:34:38.744Z,11.30
2022-12-06T14:37:21.277Z,9.07
2022-12-06T14:39:53.813Z,17.40
2022-12-06T14:42:41.744Z,10.00
2022-12-06T14:45:16.225Z,11.47
2022-12-06T14:47:46.460Z,24.63
2022-12-06T14:50:28.348Z,14.20
2022-12-06T14:52:59.752Z,9.67
2022-12-06T14:55:31.475Z,11.13
2022-12-06T14:58:04.171Z,19.83
2022-12-06T15:00:38.443Z,12.30
2022-12-06T15:03:26.058Z,12.40
2022-12-06T15:06:18.412Z,12.67
2022-12-06T15:08:53.449Z,9.87
2022-12-06T15:11:44.337Z,15.03
2022-12-06T15:14:16.536Z,14.07
2022-12-06T15:16:47.115Z,21.43
2022-12-06T15:19:17.969Z,11.53
2022-12-06T15:21:46.808Z,13.57
2022-12-06T15:24:19.479Z,10.70
2022-12-06T15:26:47.981Z,14.43
2022-12-06T15:29:52.691Z,12.73
2022-12-06T15:32:25.463Z,22.47
2022-12-06T15:34:53.843Z,14.33
2022-12-06T15:37:38.629Z,13.03
2022-12-06T15:40:10.057Z,15.70
2022-12-06T15:42:40.363Z,12.13
2022-12-06T15:45:16.347Z,15.40
2022-12-06T15:47:46.250Z,13.20
2022-12-06T15:50:16.690Z,12.77
2022-12-06T15:52:48.041Z,12.73
2022-12-06T15:55:18.886Z,12.33
2022-12-06T15:57:48.273Z,9.93
2022-12-06T16:00:17.519Z,16.87
2022-12-06T16:02:48.983Z,12.87
2022-12-06T16:05:23.241Z,10.77
2022-12-06T16:07:52.322Z,14.40
2022-12-06T16:10:23.239Z,19.70
2022-12-06T16:13:11.748Z,10.47
2022-12-06T16:15:42.788Z,16.13
2022-12-06T16:18:22.476Z,16.67
2022-12-06T16:20:51.837Z,14.97
2022-12-06T16:24:12.477Z,13.50
2022-12-06T16:26:39.461Z,14.10
2022-12-06T16:29:13.863Z,15.40
2022-12-06T16:31:42.617Z,15.60
2022-12-06T16:34:15.851Z,15.70
2022-12-06T16:36:56.390Z,10.43
2022-12-06T16:39:28.988Z,11.77
2022-12-06T16:41:57.335Z,14.00
2022-12-06T16:44:27.047Z,11.33
2022-12-06T16:46:55.957Z,10.13
2022-12-06T16:49:49.122Z,13.00
2022-12-06T16:52:19.178Z,13.07
2022-12-06T16:54:49.658Z,13.10
2022-12-06T16:57:19.837Z,15.20
2022-12-06T16:59:48.983Z,13.93
2022-12-06T17:02:32.239Z,13.63
2022-12-06T17:05:11.800Z,10.93
2022-12-06T17:07:41.404Z,13.40
2022-12-06T17:10:12.259Z,12.43
2022-12-06T17:15:50.547Z,13.40
2022-12-06T17:18:21.222Z,18.80
2022-12-06T17:20:53.181Z,11.67
2022-12-06T17:23:25.228Z,16.43
2022-12-06T17:26:02.432Z,16.47
2022-12-06T17:28:53.033Z,19.43
2022-12-06T17:31:36.027Z,14.97
2022-12-06T17:34:24.026Z,17.90
2022-12-06T17:36:58.122Z,16.97
2022-12-06T17:48:22.140Z,14.53
2022-12-06T17:54:12.729Z,11.67
2022-12-06T17:56:46.127Z,13.37
2022-12-06T17:59:18.320Z,14.90
2022-12-06T18:02:14.290Z,14.00
2022-12-06T18:04:38.833Z,16.83
2022-12-06T18:07:09.085Z,15.03
2022-12-06T18:13:12.147Z,17.23
2022-12-06T18:18:54.085Z,16.10
2022-12-06T18:24:35.653Z,14.73
2022-12-06T18:27:15.864Z,16.40
2022-12-06T18:29:52.834Z,11.73
2022-12-06T18:32:21.785Z,16.57
2022-12-06T18:37:22.550Z,21.10
2022-12-06T18:39:50.866Z,21.27
2022-12-06T18:42:19.385Z,20.23
2022-12-06T18:44:53.596Z,18.37
2022-12-06T18:47:26.033Z,17.13
2022-12-06T18:49:54.498Z,19.93
2022-12-06T18:52:22.697Z,19.93
2022-12-06T18:54:50.890Z,16.93
2022-12-06T18:57:19.732Z,18.20
2022-12-06T18:59:51.014Z,18.30
2022-12-06T19:02:19.610Z,15.93
2022-12-06T19:04:48.382Z,15.70
2022-12-06T19:07:20.579Z,13.00
2022-12-06T19:09:52.503Z,16.27
2022-12-06T19:12:22.793Z,14.37
2022-12-06T19:14:52.925Z,10.20
2022-12-06T19:17:21.481Z,16.80
2022-12-06T19:19:51.089Z,12.40
2022-12-06T19:22:19.683Z,13.37
2022-12-06T19:24:49.405Z,15.27
2022-12-06T19:27:20.479Z,12.43
2022-12-06T19:29:49.141Z,11.33
2022-12-06T19:32:19.637Z,16.10
2022-12-06T19:34:48.409Z,9.93
2022-12-06T19:37:18.117Z,12.63
2022-12-06T19:39:49.868Z,9.93
2022-12-06T19:42:35.732Z,12.37
2022-12-06T19:45:04.799Z,10.80
2022-12-06T19:47:34.694Z,11.93
2022-12-06T19:50:03.408Z,9.70
2022-12-06T19:52:32.220Z,12.20
2022-12-06T19:55:00.608Z,11.77
2022-12-06T19:57:28.800Z,9.67
2022-12-06T19:59:57.270Z,10.93
2022-12-06T20:02:25.679Z,10.10
2022-12-06T20:04:55.555Z,10.77
2022-12-06T20:07:23.783Z,9.80
2022-12-06T20:09:53.913Z,10.90
2022-12-06T20:12:22.147Z,12.83
2022-12-06T20:14:51.164Z,14.13
2022-12-06T20:17:21.355Z,13.40
2022-12-06T20:19:49.665Z,10.80
2022-12-06T20:22:22.524Z,11.20
2022-12-06T20:24:50.737Z,11.40
2022-12-06T20:27:40.135Z,11.60
2022-12-06T20:30:12.409Z,10.90
2022-12-06T20:32:40.835Z,11.70
2022-12-06T20:35:09.828Z,10.97
2022-12-06T20:37:39.738Z,12.73
2022-12-06T20:40:12.037Z,12.33
2022-12-06T20:42:40.309Z,11.83
2022-12-06T20:45:09.803Z,13.23
2022-12-06T20:47:38.421Z,12.37
2022-12-06T20:50:08.012Z,13.87
2022-12-06T20:52:39.151Z,12.47
2022-12-06T20:55:10.147Z,19.77
2022-12-06T20:57:38.910Z,14.03
2022-12-06T21:00:11.013Z,14.70
2022-12-06T21:02:39.710Z,14.17
2022-12-06T21:05:08.503Z,16.43
2022-12-06T21:07:37.019Z,14.33
2022-12-06T21:10:06.821Z,13.87
2022-12-06T21:12:36.793Z,13.07
2022-12-06T21:15:05.661Z,17.27
2022-12-06T21:17:34.423Z,12.43
2022-12-06T21:20:04.228Z,12.87
2022-12-06T21:22:32.969Z,12.53
2022-12-06T21:25:01.421Z,14.67
2022-12-06T21:27:30.228Z,14.57
2022-12-06T21:30:00.603Z,13.17
2022-12-06T21:32:29.429Z,14.00
2022-12-06T21:34:57.661Z,13.73
2022-12-06T21:37:26.303Z,14.27
2022-12-06T21:39:54.640Z,12.60
2022-12-06T21:42:24.005Z,13.17
2022-12-06T21:44:52.563Z,13.63
2022-12-06T21:47:22.449Z,17.60
2022-12-06T21:49:50.706Z,15.77
2022-12-06T21:52:19.926Z,15.00
2022-12-06T21:54:48.179Z,17.27
2022-12-06T21:57:16.661Z,19.10
2022-12-06T21:59:45.134Z,16.73
2022-12-06T22:02:13.903Z,19.20
2022-12-06T22:04:43.731Z,15.97
2022-12-06T22:07:12.210Z,16.40
2022-12-06T22:09:40.775Z,14.13
2022-12-06T22:12:09.172Z,13.60
2022-12-06T22:14:40.618Z,12.67
2022-12-06T22:17:09.213Z,17.60
2022-12-06T22:19:37.761Z,14.13
2022-12-06T22:22:08.162Z,12.53
2022-12-06T22:24:37.061Z,9.70
2022-12-06T22:27:05.652Z,12.03
2022-12-06T22:29:34.179Z,10.03
2022-12-06T22:32:02.675Z,9.00
2022-12-06T22:34:31.112Z,11.33
2022-12-06T22:36:59.685Z,9.67
2022-12-06T22:39:29.485Z,11.87
2022-12-06T22:41:57.804Z,10.03
2022-12-06T22:44:26.764Z,9.97
2022-12-06T22:46:55.199Z,11.97
2022-12-06T22:49:23.929Z,10.20
2022-12-06T22:51:52.456Z,12.87
2022-12-06T22:54:20.941Z,15.27
2022-12-06T22:56:50.747Z,13.53
2022-12-06T22:59:21.015Z,11.43
2022-12-06T23:01:49.534Z,13.50
2022-12-06T23:04:18.047Z,14.00
2022-12-06T23:06:46.561Z,11.03
2022-12-06T23:09:17.306Z,14.03
2022-12-06T23:11:45.925Z,14.03
2022-12-06T23:14:16.469Z,10.43
2022-12-06T23:16:45.738Z,11.90
2022-12-06T23:19:14.231Z,10.10
2022-12-06T23:21:42.941Z,11.67
2022-12-06T23:24:13.940Z,10.40
2022-12-06T23:26:43.894Z,12.23
2022-12-06T23:29:12.704Z,9.67
2022-12-06T23:31:45.758Z,10.83
2022-12-06T23:34:16.772Z,10.27
2022-12-06T23:36:45.444Z,11.73
2022-12-06T23:39:14.321Z,11.03
2022-12-06T23:41:42.763Z,10.37
2022-12-06T23:44:13.289Z,12.33
2022-12-06T23:46:44.623Z,10.37
2022-12-06T23:49:16.937Z,13.40
2022-12-06T23:51:45.528Z,11.23
2022-12-06T23:54:15.610Z,10.93
2022-12-06T23:56:44.520Z,12.00
2022-12-06T23:59:14.758Z,12.17
